All
Koodaideri Mine Airport (Newman, WA) OOD Weather
|
Newman, WA (OOD / YKDD)
Clear skies
Light winds |
|
25 °C |
OOD Terminal Area Forecast
| Date | Time (AWST) | Flight Rules | Wind Dir. | Speed | Type | Height AGL (ft) | Visibility | Remarks | ||||||
|---|---|---|---|---|---|---|---|---|---|---|---|---|---|---|
| 05-May | 17:00 | VFR | 120° | 14 kt | Clouds and Visibility are OK | >= 6 miles | ||||||||
| 05-May | 16:00 | VFR | 120° | 14 kt | Clouds and Visibility are OK | >= 6 miles | ||||||||
| 05-May | 15:00 | VFR | 120° | 14 kt | Clouds and Visibility are OK | >= 6 miles | ||||||||
Recent OOD METAR history
| Date | Time (AWST) | Flight Rules | Wind Dir. | Speed | Type | Height AGL (ft) | Visibility | Temp (°C) | Temp (°F) | Dew Point (°C) | Dew Point (°F) | Rel. Humid. | Pressure | Density Altitude | Remarks |
|---|---|---|---|---|---|---|---|---|---|---|---|---|---|---|---|
| 05-May | 15:00 | VFR | 120° | 9 kt | 10000 meters | 25° | 77° | -1° | 30° | 18% | 1017 mb | 2,789 ft | |||
| 05-May | 14:00 | VFR | 140° | 10 kt | 10000 meters | 25° | 77° | 0° | 32° | 19% | 1018 mb | 2,759 ft | |||
| 05-May | 13:00 | VFR | 90° | 8 kt | 10000 meters | 24° | 75° | 0° | 32° | 20% | 1018 mb | 2,639 ft | |||
| 05-May | 12:00 | VFR | 100° | 10 kt | 10000 meters | 23° | 73° | 0° | 32° | 22% | 1019 mb | 2,490 ft | |||
| 05-May | 11:00 | VFR | 120° | 12 kt | 10000 meters | 22° | 71° | 1° | 33° | 25% | 1020 mb | 2,340 ft | |||
| 05-May | 10:00 | VFR | 110° | 16 kt | 10000 meters | 21° | 69° | 2° | 35° | 28% | 1021 mb | 2,190 ft | |||
| 05-May | 09:00 | VFR | 110° | 14 kt | 10000 meters | 19° | 66° | 2° | 35° | 32% | 1022 mb | 1,921 ft | |||
| 05-May | 08:00 | VFR | 120° | 17 kt | 10000 meters | 18° | 64° | 3° | 37° | 37% | 1021 mb | 1,830 ft | |||
| 05-May | 07:00 | VFR | 130° | 13 kt | 10000 meters | 16° | 60° | 3° | 37° | 42% | 1021 mb | 1,590 ft | |||
| 05-May | 06:00 | VFR | 120° | 11 kt | 10000 meters | 16° | 60° | 2° | 35° | 39% | 1020 mb | 1,620 ft | |||
| 05-May | 05:00 | VFR | 120° | 12 kt | 10000 meters | 16° | 60° | 2° | 35° | 39% | 1020 mb | 1,620 ft | |||
| 05-May | 04:00 | VFR | 120° | 13 kt | 10000 meters | 17° | 62° | 1° | 33° | 34% | 1019 mb | 1,770 ft | |||
| 05-May | 03:00 | VFR | 120° | 14 kt | 10000 meters | 16° | 60° | 0° | 32° | 34% | 1019 mb | 1,650 ft | |||
| 05-May | 02:00 | VFR | 120° | 14 kt | 10000 meters | 18° | 64° | 0° | 32° | 30% | 1019 mb | 1,890 ft | |||
| 05-May | 01:00 | VFR | 120° | 12 kt | 10000 meters | 18° | 64° | -1° | 30° | 28% | 1020 mb | 1,860 ft | |||
| 05-May | 00:00 | VFR | 120° | 11 kt | 10000 meters | 19° | 66° | -2° | 28° | 24% | 1020 mb | 1,980 ft | |||
| 04-May | 23:00 | VFR | 130° | 13 kt | 10000 meters | 20° | 68° | -2° | 28° | 23% | 1020 mb | 2,100 ft | |||
| 04-May | 22:00 | VFR | 120° | 11 kt | 10000 meters | 21° | 69° | -1° | 30° | 23% | 1020 mb | 2,220 ft | |||
| 04-May | 21:00 | VFR | 120° | 9 kt | 10000 meters | 22° | 71° | 0° | 32° | 23% | 1020 mb | 2,340 ft | |||
| 04-May | 20:00 | VFR | 130° | 10 kt | 10000 meters | 23° | 73° | 0° | 32° | 22% | 1020 mb | 2,460 ft | |||
| 04-May | 19:00 | VFR | 120° | 7 kt | 10000 meters | 23° | 73° | 1° | 33° | 23% | 1019 mb | 2,490 ft | |||
| 04-May | 18:00 | VFR | 110° | 10 kt | 10000 meters | 25° | 77° | 2° | 35° | 22% | 1018 mb | 2,759 ft | |||
| 04-May | 17:00 | VFR | 110° | 12 kt | 10000 meters | 26° | 78° | 2° | 35° | 21% | 1018 mb | 2,879 ft | |||
| 04-May | 16:00 | VFR | 110° | 11 kt | 10000 meters | 27° | 80° | 1° | 33° | 18% | 1017 mb | 3,029 ft |
Login
| Your browser is unsupported. upgrade your browser |
